X  Κλείσε Στοιχεία αεροπορικών μετεωρολογικών δεδομένων METAR     EDDH Hamburg Helmut Schmidt Airport
θερμοκρασία
2°C θερμοκρασία
1°C Σημείο δρόσου
93% Υγρασία



Ανεμος
50 KM/H
31 MPH
14 M/S
27 KTS



280°
Dytiká
Τρέχουσες συνθήκες

ελαφρός χιόνι, ελαφρός βροχή ελαφρός χιόνι, ελαφρός βροχή
πίεση 981.92 (hPa) - 29 (inHg)
Ορατότητα 5.6 (μίλι) - 9 (km)
Aεροδρόμιο
Κωδικός αεροδρομίου EDDH

Τοποθεσία: Hamburg Helmut Schmidt Airport
Απόσταση: 11 (km)

Metar:
EDDH 012050Z 28027G38KT 250V310 9000 -SNRA FEW006 BKN009 02/01 Q0982 TEMPO RASN BKN011

ώρα: 01-12-2021 21:50 CET